createdAt,value
2018-09-12T00:00:23.760Z,95831.70
2018-09-12T00:03:28.120Z,95834.69
2018-09-12T00:06:39.592Z,95828.14
2018-09-12T00:09:44.120Z,95822.34
2018-09-12T00:12:48.850Z,95819.77
2018-09-12T00:15:53.257Z,95821.01
2018-09-12T00:18:57.745Z,95815.77
2018-09-12T00:22:02.182Z,95815.11
2018-09-12T00:25:09.441Z,95809.20
2018-09-12T00:28:14.139Z,95805.52
2018-09-12T00:31:18.694Z,95802.63
2018-09-12T00:34:23.188Z,95799.49
2018-09-12T00:37:27.800Z,95799.94
2018-09-12T00:40:32.206Z,95803.26
2018-09-12T00:43:36.558Z,95801.13
2018-09-12T00:46:41.061Z,95798.59
2018-09-12T00:49:45.425Z,95801.03
2018-09-12T00:52:50.311Z,95799.81
2018-09-12T00:55:54.711Z,95805.52
2018-09-12T00:58:59.066Z,95794.83
2018-09-12T01:02:03.692Z,95792.48
2018-09-12T01:05:08.134Z,95795.48
2018-09-12T01:08:14.073Z,95794.05
2018-09-12T01:11:18.601Z,95796.27
2018-09-12T01:14:23.196Z,95792.25
2018-09-12T01:17:27.527Z,95789.58
2018-09-12T01:20:31.964Z,95790.82
2018-09-12T01:23:36.294Z,95792.47
2018-09-12T01:26:42.842Z,95787.68
2018-09-12T01:29:47.244Z,95790.44
2018-09-12T01:32:53.148Z,95785.72
2018-09-12T01:35:58.320Z,95777.27
2018-09-12T01:39:02.697Z,95783.22
2018-09-12T01:42:07.344Z,95790.24
2018-09-12T01:45:12.446Z,95787.38
2018-09-12T01:48:16.787Z,95778.40
2018-09-12T01:51:22.023Z,95771.27
2018-09-12T01:54:26.374Z,95773.37
2018-09-12T01:57:31.262Z,95771.58
2018-09-12T02:00:41.846Z,95771.66
2018-09-12T02:03:46.202Z,95773.00
2018-09-12T02:06:50.573Z,95765.84
2018-09-12T02:09:54.909Z,95766.95
2018-09-12T02:12:59.266Z,95761.41
2018-09-12T02:16:03.629Z,95760.49
2018-09-12T02:19:08.067Z,95760.93
2018-09-12T02:22:12.486Z,95759.92
2018-09-12T02:25:17.055Z,95757.25
2018-09-12T02:28:21.420Z,95754.44
2018-09-12T02:31:25.814Z,95749.86
2018-09-12T02:34:30.141Z,95742.63
2018-09-12T02:37:34.645Z,95739.47
2018-09-12T02:40:38.986Z,95736.89
2018-09-12T02:43:43.330Z,95739.38
2018-09-12T02:46:47.692Z,95725.00
2018-09-12T02:49:52.061Z,95721.12
2018-09-12T02:52:56.406Z,95723.78
2018-09-12T02:56:00.785Z,95719.32
2018-09-12T02:59:05.165Z,95711.00
2018-09-12T03:02:09.825Z,95713.44
2018-09-12T03:05:14.494Z,95708.95
2018-09-12T03:08:18.876Z,95715.27
2018-09-12T03:11:23.319Z,95703.10
2018-09-12T03:14:27.985Z,95698.55
2018-09-12T03:17:32.328Z,95694.78
2018-09-12T03:20:37.070Z,95694.67
2018-09-12T03:23:41.585Z,95689.25
2018-09-12T03:26:46.029Z,95689.80
2018-09-12T03:29:50.534Z,95685.42
2018-09-12T03:32:54.978Z,95684.33
2018-09-12T03:35:59.694Z,95680.27
2018-09-12T03:39:07.084Z,95679.78
2018-09-12T03:42:11.583Z,95675.52
2018-09-12T03:45:15.950Z,95672.63
2018-09-12T03:48:20.349Z,95665.90
2018-09-12T03:51:24.437Z,95664.37
2018-09-12T03:54:28.782Z,95659.44
2018-09-12T03:57:33.140Z,95662.11
2018-09-12T04:00:37.969Z,95665.09
2018-09-12T04:03:42.411Z,95663.67
2018-09-12T04:06:46.777Z,95659.33
2018-09-12T04:09:51.754Z,95659.17
2018-09-12T04:12:56.544Z,95657.37
2018-09-12T04:16:01.017Z,95656.16
2018-09-12T04:19:05.484Z,95650.13
2018-09-12T04:22:10.033Z,95653.90
2018-09-12T04:25:14.475Z,95651.11
2018-09-12T04:28:21.089Z,95650.88
2018-09-12T04:31:25.465Z,95650.70
2018-09-12T04:34:29.933Z,95650.06
2018-09-12T04:37:34.295Z,95652.27
2018-09-12T04:40:39.349Z,95649.05
2018-09-12T04:43:43.892Z,95653.68
2018-09-12T04:46:48.296Z,95651.48
2018-09-12T04:49:52.991Z,95650.78
2018-09-12T04:52:57.380Z,95651.48
2018-09-12T04:56:02.274Z,95654.50
2018-09-12T04:59:06.913Z,95650.73
2018-09-12T05:02:11.790Z,95644.42
2018-09-12T05:05:16.308Z,95639.84
2018-09-12T05:08:21.043Z,95645.88
2018-09-12T05:11:25.726Z,95647.84
2018-09-12T05:14:30.164Z,95643.42
2018-09-12T05:17:34.798Z,95641.89
2018-09-12T05:20:39.355Z,95639.69
2018-09-12T05:23:44.189Z,95640.20
2018-09-12T05:26:48.990Z,95636.90
2018-09-12T05:29:53.581Z,95642.58
2018-09-12T05:32:58.649Z,95653.03
2018-09-12T05:36:03.393Z,95651.78
2018-09-12T05:39:10.618Z,95652.38
2018-09-12T05:42:15.815Z,95648.85
2018-09-12T05:45:20.204Z,95659.45
2018-09-12T05:48:25.077Z,95658.92
2018-09-12T05:51:29.477Z,95650.84
2018-09-12T05:54:34.387Z,95657.34
2018-09-12T05:57:39.008Z,95654.91
2018-09-12T06:00:43.749Z,95652.83
2018-09-12T06:03:48.526Z,95650.93
2018-09-12T06:06:52.934Z,95655.28
2018-09-12T06:09:57.638Z,95655.02
2018-09-12T06:20:01.618Z,95651.59
2018-09-12T06:23:09.456Z,95643.66
2018-09-12T06:32:47.513Z,95650.64
2018-09-12T06:35:52.608Z,95656.58
2018-09-12T06:38:57.379Z,95647.13
2018-09-12T06:42:02.132Z,95646.53
2018-09-12T06:45:08.653Z,95652.67
2018-09-12T06:48:14.098Z,95642.24
2018-09-12T06:51:20.434Z,95639.86
2018-09-12T06:54:25.213Z,95642.77
2018-09-12T06:57:30.571Z,95641.29
2018-09-12T07:00:36.217Z,95636.86
2018-09-12T07:03:41.006Z,95633.00
2018-09-12T07:06:46.264Z,95628.55
2018-09-12T07:09:51.059Z,95640.03
2018-09-12T07:12:58.380Z,95636.84
2018-09-12T07:16:04.295Z,95634.27
2018-09-12T07:19:09.179Z,95637.97
2018-09-12T07:22:14.106Z,95643.92
2018-09-12T07:25:18.856Z,95641.73
2018-09-12T07:28:28.675Z,95647.95
2018-09-12T07:35:12.223Z,95654.81
2018-09-12T07:45:44.181Z,95663.42
2018-09-12T08:50:23.902Z,95697.08
2018-09-12T08:53:29.345Z,95694.30
2018-09-12T08:56:50.109Z,95698.41
2018-09-12T08:59:55.144Z,95699.55
2018-09-12T09:03:27.779Z,95705.11
2018-09-12T09:06:40.073Z,95700.69
2018-09-12T09:09:46.718Z,95699.70
2018-09-12T09:16:32.999Z,95700.33
2018-09-12T09:19:39.136Z,95700.75
2018-09-12T09:22:44.590Z,95698.47
2018-09-12T09:25:49.444Z,95690.28
2018-09-12T09:29:00.109Z,95687.48
2018-09-12T09:32:17.042Z,95689.77
2018-09-12T09:39:28.944Z,95685.97
2018-09-12T09:42:35.414Z,95680.87
2018-09-12T11:34:09.554Z,95611.12
2018-09-12T11:37:14.681Z,95604.74
2018-09-12T11:40:19.328Z,95599.03
2018-09-12T11:43:26.047Z,95596.48
2018-09-12T11:46:31.684Z,95595.56
2018-09-12T11:49:36.701Z,95593.52
2018-09-12T11:52:43.345Z,95595.92
2018-09-12T11:55:50.079Z,95594.50
2018-09-12T11:58:59.263Z,95590.59
2018-09-12T12:02:05.866Z,95595.42
2018-09-12T12:05:11.303Z,95597.14
2018-09-12T12:08:17.471Z,95586.86
2018-09-12T12:11:23.891Z,95585.44
2018-09-12T12:14:32.152Z,95580.45
2018-09-12T12:17:39.394Z,95583.48
2018-09-12T12:20:45.208Z,95573.81
2018-09-12T12:23:51.252Z,95572.06
2018-09-12T12:26:57.644Z,95565.96
2018-09-12T12:30:05.816Z,95561.75
2018-09-12T12:33:11.061Z,95546.96
2018-09-12T12:36:16.901Z,95548.88
2018-09-12T12:39:22.607Z,95546.05
2018-09-12T12:42:28.744Z,95541.05
2018-09-12T12:45:33.838Z,95534.10
2018-09-12T12:48:38.595Z,95528.69
2018-09-12T12:51:43.650Z,95519.08
2018-09-12T12:54:48.216Z,95515.52
2018-09-12T12:57:52.933Z,95514.77
2018-09-12T13:00:57.653Z,95508.38
2018-09-12T13:04:02.829Z,95497.37
2018-09-12T13:07:07.388Z,95481.91
2018-09-12T13:10:11.957Z,95488.50
2018-09-12T13:13:16.481Z,95476.06
2018-09-12T13:16:21.888Z,95478.89
2018-09-12T13:19:26.489Z,95483.14
2018-09-12T13:22:31.143Z,95483.97
2018-09-12T13:25:37.807Z,95480.70
2018-09-12T13:28:46.338Z,95479.66
2018-09-12T13:31:53.926Z,95475.09
2018-09-12T13:34:58.559Z,95472.89
2018-09-12T13:38:06.784Z,95462.69
2018-09-12T13:41:11.477Z,95461.81
2018-09-12T13:44:17.672Z,95457.83
2018-09-12T13:47:22.231Z,95455.44
2018-09-12T13:50:28.397Z,95455.69
2018-09-12T13:53:34.547Z,95453.14
2018-09-12T13:56:40.694Z,95448.70
2018-09-12T13:59:48.813Z,95447.92
2018-09-12T14:02:58.499Z,95448.27
2018-09-12T14:06:03.557Z,95439.74
2018-09-12T14:09:12.193Z,95434.28
2018-09-12T14:12:17.264Z,95432.22
2018-09-12T14:15:25.226Z,95436.94
2018-09-12T14:18:30.233Z,95430.89
2018-09-12T14:21:34.986Z,95428.66
2018-09-12T14:24:41.290Z,95423.89
2018-09-12T14:27:46.287Z,95427.11
2018-09-12T14:30:51.312Z,95423.80
2018-09-12T14:33:57.470Z,95409.66
2018-09-12T14:37:03.663Z,95407.34
2018-09-12T14:40:13.517Z,95396.08
2018-09-12T14:43:22.326Z,95399.06
2018-09-12T14:46:29.006Z,95398.15
2018-09-12T14:49:39.893Z,95392.41
2018-09-12T14:52:44.897Z,95395.06
2018-09-12T14:55:50.781Z,95397.55
2018-09-12T14:58:57.467Z,95387.83
2018-09-12T15:02:02.432Z,95382.37
2018-09-12T15:05:09.065Z,95388.60
2018-09-12T15:08:15.044Z,95383.78
2018-09-12T15:11:43.833Z,95378.02
2018-09-12T15:14:48.503Z,95380.29
2018-09-12T15:17:54.517Z,95368.05
2018-09-12T15:21:00.796Z,95363.88
2018-09-12T15:24:05.457Z,95371.12
2018-09-12T15:27:11.685Z,95365.14
2018-09-12T15:30:16.552Z,95364.55
2018-09-12T15:33:22.535Z,95366.33
2018-09-12T15:36:29.927Z,95369.06
2018-09-12T15:39:35.197Z,95364.80
2018-09-12T15:42:43.551Z,95358.47
2018-09-12T15:45:50.798Z,95360.02
2018-09-12T15:48:58.847Z,95357.03
2018-09-12T15:52:05.043Z,95356.52
2018-09-12T15:55:10.942Z,95352.52
2018-09-12T15:58:17.117Z,95352.34
2018-09-12T16:01:23.704Z,95349.27
2018-09-12T16:04:30.477Z,95346.53
2018-09-12T16:07:35.989Z,95344.92
2018-09-12T16:10:43.132Z,95340.16
2018-09-12T16:13:49.784Z,95331.37
2018-09-12T16:16:54.987Z,95328.73
2018-09-12T16:20:00.920Z,95322.89
2018-09-12T16:23:09.681Z,95316.91
2018-09-12T16:26:14.138Z,95319.55
2018-09-12T16:29:18.624Z,95311.00
2018-09-12T16:32:23.051Z,95309.58
2018-09-12T16:35:27.518Z,95304.97
2018-09-12T16:38:32.518Z,95305.92
2018-09-12T16:41:39.033Z,95307.91
2018-09-12T16:44:44.632Z,95307.55
2018-09-12T16:47:49.542Z,95306.66
2018-09-12T16:50:56.089Z,95302.65
2018-09-12T16:54:01.202Z,95310.33
2018-09-12T16:57:06.272Z,95310.06
2018-09-12T17:00:11.406Z,95306.21
2018-09-12T17:03:17.692Z,95313.97
2018-09-12T17:06:22.520Z,95311.14
2018-09-12T17:09:27.586Z,95305.41
2018-09-12T17:12:32.466Z,95303.91
2018-09-12T17:15:37.346Z,95305.56
2018-09-12T17:18:42.007Z,95298.71
2018-09-12T17:21:46.400Z,95303.26
2018-09-12T17:24:51.525Z,95303.95
2018-09-12T17:27:56.054Z,95304.76
2018-09-12T17:31:00.441Z,95296.71
2018-09-12T17:34:05.624Z,95304.72
2018-09-12T17:37:12.846Z,95306.13
2018-09-12T17:40:17.965Z,95300.59
2018-09-12T17:43:22.625Z,95302.20
2018-09-12T17:46:26.769Z,95302.72
2018-09-12T17:49:31.158Z,95305.55
2018-09-12T17:52:39.124Z,95304.23
2018-09-12T17:55:44.191Z,95301.92
2018-09-12T17:58:49.864Z,95304.42
2018-09-12T18:01:55.214Z,95308.25
2018-09-12T18:05:00.672Z,95310.53
2018-09-12T18:08:05.840Z,95314.56
2018-09-12T18:11:10.892Z,95319.94
2018-09-12T18:14:15.386Z,95322.56
2018-09-12T18:17:19.865Z,95326.76
2018-09-12T18:20:24.361Z,95330.00
2018-09-12T18:23:28.840Z,95333.81
2018-09-12T18:26:34.141Z,95334.56
2018-09-12T18:29:38.623Z,95341.84
2018-09-12T18:32:44.019Z,95353.76
2018-09-12T18:35:48.713Z,95358.70
2018-09-12T18:38:53.406Z,95358.82
2018-09-12T18:41:57.698Z,95352.30
2018-09-12T18:45:03.127Z,95349.40
2018-09-12T18:48:07.269Z,95351.83
2018-09-12T18:51:13.020Z,95348.87
2018-09-12T18:54:18.569Z,95352.25
2018-09-12T18:57:24.072Z,95348.22
2018-09-12T19:00:28.686Z,95342.19
2018-09-12T19:03:33.481Z,95341.37
2018-09-12T19:06:40.007Z,95346.48
2018-09-12T19:09:45.500Z,95347.75
2018-09-12T19:12:50.285Z,95354.42
2018-09-12T19:15:55.488Z,95358.80
2018-09-12T19:19:01.548Z,95363.55
2018-09-12T19:22:07.313Z,95359.41
2018-09-12T19:25:11.776Z,95365.80
2018-09-12T19:28:16.586Z,95369.19
2018-09-12T19:31:21.657Z,95372.00
2018-09-12T19:34:27.037Z,95370.21
2018-09-12T19:37:33.367Z,95369.35
2018-09-12T19:40:38.797Z,95371.20
2018-09-12T19:43:43.802Z,95368.08
2018-09-12T19:46:49.290Z,95367.63
2018-09-12T19:49:55.022Z,95366.85
2018-09-12T19:53:02.124Z,95370.20
2018-09-12T19:56:06.759Z,95376.83
2018-09-12T19:59:11.363Z,95372.49
2018-09-12T20:02:25.400Z,95380.52
2018-09-12T20:05:31.660Z,95383.77
2018-09-12T20:08:38.167Z,95375.09
2018-09-12T20:11:43.053Z,95370.05
2018-09-12T20:14:48.743Z,95368.70
2018-09-12T20:17:54.000Z,95367.30
2018-09-12T20:20:59.187Z,95371.86
2018-09-12T20:24:04.529Z,95372.00
2018-09-12T20:27:10.293Z,95375.50
2018-09-12T20:30:16.474Z,95368.13
2018-09-12T20:33:20.954Z,95363.05
2018-09-12T20:36:27.006Z,95362.45
2018-09-12T20:39:31.632Z,95353.44
2018-09-12T20:42:36.882Z,95354.85
2018-09-12T20:45:42.560Z,95352.05
2018-09-12T20:48:48.317Z,95350.11
2018-09-12T20:51:53.175Z,95349.38
2018-09-12T20:54:58.368Z,95350.27
2018-09-12T20:58:03.311Z,95346.30
2018-09-12T21:01:10.772Z,95358.83
2018-09-12T21:04:15.693Z,95352.42
2018-09-12T21:07:20.943Z,95348.08
2018-09-12T21:10:25.972Z,95345.95
2018-09-12T21:13:30.486Z,95344.22
2018-09-12T21:16:36.040Z,95341.98
2018-09-12T21:19:42.809Z,95340.41
2018-09-12T21:22:47.310Z,95346.44
2018-09-12T21:25:52.754Z,95340.80
2018-09-12T21:28:57.581Z,95342.25
2018-09-12T21:32:02.823Z,95340.91
2018-09-12T21:35:07.723Z,95332.84
2018-09-12T21:38:14.615Z,95331.86
2018-09-12T21:41:19.381Z,95326.63
2018-09-12T21:44:23.910Z,95323.48
2018-09-12T21:47:28.638Z,95325.22
2018-09-12T21:50:33.150Z,95319.06
2018-09-12T21:53:37.742Z,95321.39
2018-09-12T21:56:43.053Z,95317.40
2018-09-12T21:59:49.291Z,95317.55
2018-09-12T22:02:53.841Z,95326.20
2018-09-12T22:05:58.496Z,95325.45
2018-09-12T22:09:03.469Z,95322.56
2018-09-12T22:12:08.312Z,95322.17
2018-09-12T22:15:12.841Z,95318.56
2018-09-12T22:18:18.675Z,95318.97
2018-09-12T22:21:23.842Z,95317.62
2018-09-12T22:24:28.854Z,95315.45
2018-09-12T22:27:35.073Z,95304.11
2018-09-12T22:30:40.618Z,95305.58
2018-09-12T22:33:45.367Z,95308.00
2018-09-12T22:36:51.463Z,95303.73
2018-09-12T22:39:57.045Z,95300.63
2018-09-12T22:43:02.858Z,95291.80
2018-09-12T22:46:07.449Z,95290.66
2018-09-12T22:49:12.381Z,95287.73
2018-09-12T22:52:16.843Z,95287.68
2018-09-12T22:55:22.530Z,95292.55
2018-09-12T22:58:27.586Z,95294.60
2018-09-12T23:01:32.094Z,95297.14
2018-09-12T23:04:38.134Z,95293.08
2018-09-12T23:07:42.550Z,95290.98
2018-09-12T23:10:47.509Z,95285.69
2018-09-12T23:13:52.199Z,95283.92
2018-09-12T23:16:56.692Z,95283.55
2018-09-12T23:20:01.180Z,95278.81
2018-09-12T23:23:06.437Z,95277.87
2018-09-12T23:26:10.973Z,95273.52
2018-09-12T23:29:15.920Z,95262.41
2018-09-12T23:32:20.327Z,95257.89
2018-09-12T23:35:25.234Z,95257.99
2018-09-12T23:38:30.180Z,95254.32
2018-09-12T23:41:34.602Z,95257.39
2018-09-12T23:44:39.013Z,95255.66
2018-09-12T23:47:43.578Z,95251.81
2018-09-12T23:50:50.412Z,95248.55
2018-09-12T23:53:54.805Z,95250.89
2018-09-12T23:56:58.954Z,95247.53
